ADDS TAF Board (Experimental) INFO Settings
IDs: Format: Expanded Condensed

KMIA - Miami Intl, FL, US

Issued at 1129 UTC 30 May 2015
Updated at: 1224 UTC 30 May 2015
Time1153Z 30/13Z 30/14Z 30/15Z 30/16Z 30/17Z 30/18Z 30/19Z 30/20Z 30/21Z 30/22Z 30/23Z 31/00Z 31/01Z
Type OBS PRVL PRVL PRVL PRVL PRVL PRVL PRVL PRVL PRVL PRVL PRVL PRVL PRVL
VIS 10 >6 >6 >6 >6 >6 >6 >6 >6 >6 >6 >6 >6 >6
CIG 250 -- 50 50 50 50 50 50 50 50 50 50 50 50
Cover BKN SCT BKN BKN BKN BKN BKN BKN BKN BKN BKN BKN BKN BKN
FltCat VFR VFR VFR VFR VFR VFR VFR VFR VFR VFR VFR VFR VFR VFR
WX -- VCSH VCSH VCSH VCSH VCSH VCSH VCSH VCSH VCSH VCSH VCSH VCSH VCSH
WDir VRB 80 90 90 90 90 90 90 90 90 90 90 90 90
WSpd 4 4 9 9 9 9 9 9 9 9 9 9 9 9
WGst -- -- -- -- -- -- -- -- -- -- -- -- -- --
R08/26
XWnd VRB 0 -0 -0 -0 -0 -0 -0 -0 -0 -0 -0 -0 -0
HWnd VRB 4 9 9 9 9 9 9 9 9 9 9 9 9
R09/27
XWnd VRB 0 -0 -0 -0 -0 -0 -0 -0 -0 -0 -0 -0 -0
HWnd VRB 4 9 9 9 9 9 9 9 9 9 9 9 9
R12/30
XWnd VRB 3 4 4 4 4 4 4 4 4 4 4 4 4
HWnd VRB 3 8 8 8 8 8 8 8 8 8 8 8 8

NOTE: TEMPO conditions in [brackets]. Keep in mind TEMPO conditions might be better (lower impact) than prevailing conditions.

Raw TAF
KMIA 301129Z 3012/3112 08004KT P6SM VCSH FEW025 SCT250
  FM301400 09009KT P6SM VCSH SCT030 BKN050
  FM310600 09005KT P6SM SCT250
  FM311000 08002KT P6SM BKN100


Raw METAR
KMIA 301153Z VRB04KT 10SM FEW025 BKN250 27/21 A3004 RMK AO2 SLP172 60000 T02670211 10267 20244 53010
KMIA 301053Z 09004KT 10SM FEW025 BKN250 25/21 A3003 RMK AO2 SLP169 T02500206
KMIA 300953Z 08005KT 10SM FEW025 SCT250 25/21 A3002 RMK AO2 SLP164 T02500206

METAR Board
Radar Display
Forecast Discussion

TAF Board Legend

Potential Impact
Threat None Slight Moderate High
Visibility (sm) ≥5.1 5.1>X≥3 3>X≥1 <1
Ceiling (100 ft) ≥30.1 30.1>X≥10 10>X≥5 <5
Wind Speed (kt) <10 10≤X<20 20≤X<30 ≥30
Wind Gust (kt) <15 15≤X<25 25≤X<35 ≥35
Weather No Wx Reported VCTS,-TS,-FZRA,SN TS,FZRA +TS,+FZRA,+SN